Warning: Javascript must be enabled to use all the features on this page!


Page Loading - Please Wait...

Click to hideNews Bulletins

Peak Streamflow for the Nation

USGS 04266500 RAQUETTE RIVER AT PIERCEFIELD NY

St. Lawrence County, New York
Hydrologic Unit Code 04150305
Latitude  44°14'05", Longitude  74°34'19" NAD83
Drainage area 721  square miles
Gage datum 1,502.03 feet above NAVD88
Output formats
Table
Graph
Tab-separated file
peakfq (watstore) format
Reselect output format
Water
Year
Date Gage
Height
(feet)
Stream-
flow
(cfs)
1900 1900-05-01   7,0002,6,7
1909 1909-05-14 8.153 5,5606
1910 1910-04-06 7.603 4,9006
1911 1911-05-01 10.506 6,0006
1912 1912-04-30 11.45 7,1206
1913 1913-04-01 11.68 7,1006
1914 1914-04-26 11.23 6,5906
1915 1915-04-21 8.73 3,7606
1916 1916-05-22 9.63 4,7806
1917 1917-04-30 9.75 4,9506
1918 1918-04-02 10.60 5,9906
1919 1919-04-16 9.93 5,1706
1920 1920-04-29   5,3006
1921 1921-03-30 11.49 7,1506
1922 1922-04-17 11.82 7,5806
1923 1923-04-30 9.63 4,6006
1924 1924-05-05 10.70 5,9306
1925 1925-04-06 9.40 4,3806
1926 1926-05-07 11.20 6,9206
1927 1927-05-23 8.30 3,1506
1928 1928-04-14 11.10 6,7506
1929 1929-04-12 10.05 5,2206
1930 1930-04-21 9.70 4,7606
1931 1931-04-22 8.75 3,6206
1932 1932-05-04 9.80 4,8906
1933 1933-04-23 11.01 6,6206
1934 1934-04-21 9.81 4,9006
1935 1935-05-08 9.47 4,4606
1936 1936-03-30 10.13 5,3306
1937 1937-05-22 9.58 4,6006
1938 1938-03-29 9.29 4,2506
1939 1939-05-02 10.47 5,8106
1940 1940-05-07 10.80 6,3006
1941 1941-04-23 9.06 3,9706
1942 1942-04-22 9.97 5,1106
1943 1943-05-16 12.09 8,2406
1944 1944-05-09 11.13 6,6406
1945 1945-04-05 11.36 6,9706
1946 1945-10-10 9.25 4,2306
1947 1947-05-08 11.60 7,3006
1948 1948-04-05 10.73 5,9906
1949 1949-04-03 9.36 4,2206
1950 1950-04-26 8.79 3,5806
1951 1951-04-16 10.85 6,1606
1952 1952-04-24 9.48 4,3806
1953 1953-04-03 10.09 5,1306
1954 1954-04-25 11.32 6,8306
1955 1955-04-21 11.56 7,2406
1956 1956-05-07 10.66 5,8906
1957 1957-04-27 7.44 2,3506
1958 1958-04-28 9.81 4,7606
1959 1959-04-23 10.93 6,2806
1960 1960-04-26 11.30 6,8306
1961 1961-05-01 8.86 3,7006
1962 1962-05-02 9.51 4,4106
1963 1963-04-24 9.81 4,7606
1964 1964-04-23 9.24 4,1106
1965 1965-04-24 8.01 2,8606
1966 1966-04-28 8.36 3,1806
1967 1967-04-23 9.29 4,1706
1968 1968-04-04 8.93 3,7706
1969 1969-04-23 11.66 7,4006
1970 1970-05-01 10.85 6,1606
1971 1971-05-14 11.92 7,8106
1972 1972-05-08 12.25 8,3606
1973 1973-03-20 10.11 5,1506
1974 1974-04-30 9.32 4,2006
1975 1975-05-08 9.84 4,9606
1976 1976-04-05 11.30 6,9406
1977 1977-04-28 10.39 5,6606
1978 1978-05-01 10.09 5,2806
1979 1979-04-06 10.45 5,7406
1980 1980-04-15 8.99 3,9906
1981 1981-02-28 9.68 4,7706
1982 1982-04-24 10.89 6,3506
1983 1983-05-07 10.38 5,6506
1984 1983-12-18 10.32 5,5706
1985 1985-01-04 10.41 5,6906
1986 1986-04-06 10.59 5,9306
1987 1987-04-10 10.09 5,2806
1988 1988-04-11 8.80 3,7606
1989 1989-04-08 9.77 4,8806
1990 1990-03-22 10.65 6,0106
1991 1991-01-03 10.16 5,3606
1992 1992-04-27 10.88 6,3306
1993 1993-04-27 12.04 8,6306
1994 1994-04-21 11.50 7,6606
1995 1995-01-20 8.29 3,2706
1996 1996-04-27 10.51 6,0606
1997 1996-11-12 9.56 4,7306
1998 1998-01-14 11.26 7,2506
1999 1999-04-12 9.09 4,1506
2000 2000-04-11 10.43 5,9406
2001 2001-04-27 11.32 7,3506
2002 2002-04-19 10.67 6,3006
2003 2003-04-02 9.38 4,5106
2004 2004-04-05 9.07 4,1306
2005 2005-04-09 8.90 3,9306
2006 2006-07-02 8.67 3,6706
2007 2007-04-30 10.00 5,3206
2008 2008-04-21 11.33 7,3706
2009 2009-04-08 8.85 3,8706
2010 2010-04-11 8.72 3,7306
2011 2011-05-01 13.40 10,4006
2012 2012-03-22 8.83 3,7906
2013 2013-04-25 9.56 4,6106
2014 2014-04-19 11.26 6,8606
2015 2015-06-26 9.42 4,4406
2016 2016-03-20 8.34 3,2806
2017 2017-04-19 9.63 4,6906
2018 2018-05-07 11.23 6,8206
2019 2019-04-23 11.68 7,5006
2020 2019-11-05 9.64 4,7006
2021 2021-04-04 8.88 3,8406
?
  Peak Gage-Height Qualification Codes.
?
  Peak Streamflow Qualification Codes.